createdAt,value
2019-02-23T00:00:48.532Z,10.63
2019-02-23T00:02:49.667Z,11.20
2019-02-23T00:04:50.758Z,10.47
2019-02-23T00:06:51.644Z,10.67
2019-02-23T00:08:52.484Z,10.77
2019-02-23T00:10:53.353Z,10.37
2019-02-23T00:12:54.245Z,10.93
2019-02-23T00:14:55.080Z,10.43
2019-02-23T00:16:55.925Z,10.53
2019-02-23T00:18:56.789Z,10.40
2019-02-23T00:20:57.621Z,10.67
2019-02-23T00:22:58.460Z,9.90
2019-02-23T00:24:59.612Z,10.40
2019-02-23T00:27:00.464Z,9.53
2019-02-23T00:29:01.290Z,9.80
2019-02-23T00:31:02.154Z,9.70
2019-02-23T00:33:02.997Z,9.50
2019-02-23T00:35:03.819Z,10.47
2019-02-23T00:37:04.653Z,9.57
2019-02-23T00:39:05.492Z,9.63
2019-02-23T00:41:06.318Z,9.23
2019-02-23T00:43:07.177Z,9.87
2019-02-23T00:45:08.003Z,9.57
2019-02-23T00:47:08.956Z,10.00
2019-02-23T00:49:09.795Z,9.40
2019-02-23T00:51:10.957Z,9.13
2019-02-23T00:53:11.821Z,9.47
2019-02-23T00:55:12.922Z,10.00
2019-02-23T00:57:13.772Z,9.33
2019-02-23T00:59:14.683Z,9.50
2019-02-23T01:01:15.513Z,9.83
2019-02-23T01:03:16.349Z,9.80
2019-02-23T01:05:17.208Z,10.27
2019-02-23T01:07:18.029Z,10.73
2019-02-23T01:09:18.860Z,11.00
2019-02-23T01:11:20.017Z,10.90
2019-02-23T01:13:21.135Z,10.97
2019-02-23T01:15:22.001Z,11.17
2019-02-23T01:17:22.856Z,10.93
2019-02-23T01:19:23.692Z,10.60
2019-02-23T01:21:24.785Z,10.67
2019-02-23T01:23:25.633Z,11.27
2019-02-23T01:25:26.773Z,10.70
2019-02-23T01:27:27.613Z,10.30
2019-02-23T01:29:28.438Z,10.23
2019-02-23T01:31:29.289Z,10.67
2019-02-23T01:33:30.122Z,10.83
2019-02-23T01:35:30.948Z,9.97
2019-02-23T01:37:31.801Z,11.00
2019-02-23T01:39:32.632Z,10.93
2019-02-23T01:41:33.755Z,10.30
2019-02-23T01:43:34.581Z,10.50
2019-02-23T01:45:42.326Z,11.07
2019-02-23T01:47:38.458Z,11.37
2019-02-23T01:49:39.318Z,10.70
2019-02-23T01:51:40.452Z,11.00
2019-02-23T01:53:41.316Z,11.13
2019-02-23T01:55:42.147Z,11.33
2019-02-23T01:57:43.001Z,11.17
2019-02-23T01:59:43.824Z,11.50
2019-02-23T02:01:44.659Z,11.10
2019-02-23T02:03:45.509Z,10.83
2019-02-23T02:05:46.342Z,10.80
2019-02-23T02:07:47.393Z,11.00
2019-02-23T02:09:48.228Z,11.50
2019-02-23T02:11:49.076Z,11.70
2019-02-23T02:13:50.118Z,11.70
2019-02-23T02:15:51.090Z,11.37
2019-02-23T02:17:51.925Z,11.67
2019-02-23T02:19:52.756Z,11.00
2019-02-23T02:21:53.596Z,11.07
2019-02-23T02:23:54.436Z,12.00
2019-02-23T02:25:55.281Z,11.47
2019-02-23T02:27:56.216Z,11.80
2019-02-23T02:29:57.073Z,11.43
2019-02-23T02:31:57.908Z,12.13
2019-02-23T02:33:58.732Z,12.43
2019-02-23T02:35:59.589Z,12.30
2019-02-23T02:38:00.420Z,12.37
2019-02-23T02:40:01.595Z,11.63
2019-02-23T02:42:02.437Z,12.00
2019-02-23T02:44:03.280Z,12.50
2019-02-23T02:46:04.108Z,12.40
2019-02-23T02:48:04.974Z,13.30
2019-02-23T02:50:05.805Z,12.90
2019-02-23T02:52:06.628Z,12.57
2019-02-23T02:54:07.493Z,13.50
2019-02-23T02:56:08.601Z,12.63
2019-02-23T02:58:09.449Z,13.07
2019-02-23T03:00:10.588Z,13.37
2019-02-23T03:02:11.440Z,12.57
2019-02-23T03:04:12.280Z,13.47
2019-02-23T03:06:13.432Z,12.57
2019-02-23T03:08:14.281Z,12.67
2019-02-23T03:10:15.123Z,13.47
2019-02-23T03:12:15.936Z,13.70
2019-02-23T03:14:16.801Z,13.03
2019-02-23T03:16:17.629Z,13.53
2019-02-23T03:18:18.489Z,13.43
2019-02-23T03:20:19.312Z,13.73
2019-02-23T03:22:20.148Z,13.33
2019-02-23T03:24:21.001Z,13.37
2019-02-23T03:26:22.170Z,14.37
2019-02-23T03:28:23.015Z,13.83
2019-02-23T03:30:23.870Z,13.93
2019-02-23T03:32:24.694Z,14.73
2019-02-23T03:34:25.521Z,14.73
2019-02-23T03:36:26.380Z,14.43
2019-02-23T03:38:27.212Z,14.30
2019-02-23T03:40:28.317Z,14.60
2019-02-23T03:42:29.168Z,13.97
2019-02-23T03:44:30.000Z,14.07
2019-02-23T03:46:30.828Z,13.90
2019-02-23T03:48:31.668Z,14.43
2019-02-23T03:50:32.492Z,13.87
2019-02-23T03:52:33.341Z,14.70
2019-02-23T03:54:34.166Z,13.27
2019-02-23T03:56:35.024Z,14.93
2019-02-23T03:58:35.882Z,14.87
2019-02-23T04:00:37.049Z,15.17
2019-02-23T04:02:38.189Z,14.80
2019-02-23T04:04:39.336Z,15.07
2019-02-23T04:06:40.218Z,14.90
2019-02-23T04:08:41.128Z,14.40
2019-02-23T04:10:41.956Z,14.40
2019-02-23T04:12:42.805Z,14.33
2019-02-23T04:14:43.644Z,15.53
2019-02-23T04:16:44.489Z,14.70
2019-02-23T04:18:45.340Z,14.60
2019-02-23T04:20:46.176Z,14.70
2019-02-23T04:22:47.008Z,14.80
2019-02-23T04:24:47.856Z,13.63
2019-02-23T04:26:48.760Z,15.30
2019-02-23T04:28:49.661Z,14.60
2019-02-23T04:30:50.789Z,14.23
2019-02-23T04:32:51.617Z,14.07
2019-02-23T04:34:52.443Z,14.60
2019-02-23T04:36:53.298Z,13.27
2019-02-23T04:38:54.136Z,14.50
2019-02-23T04:40:54.984Z,13.43
2019-02-23T04:42:55.821Z,14.87
2019-02-23T04:44:57.023Z,15.47
2019-02-23T04:46:57.887Z,17.70
2019-02-23T04:48:59.221Z,19.63
2019-02-23T04:51:00.049Z,15.97
2019-02-23T04:53:00.881Z,14.70
2019-02-23T04:55:01.745Z,13.87
2019-02-23T04:57:02.574Z,14.90
2019-02-23T04:59:03.436Z,15.10
2019-02-23T05:01:04.259Z,15.07
2019-02-23T05:03:05.092Z,14.70
2019-02-23T05:05:06.279Z,14.77
2019-02-23T05:07:07.128Z,14.43
2019-02-23T05:09:07.972Z,14.33
2019-02-23T05:11:08.824Z,14.33
2019-02-23T05:13:09.651Z,14.23
2019-02-23T05:15:10.742Z,14.33
2019-02-23T05:17:11.601Z,14.50
2019-02-23T05:19:12.436Z,14.60
2019-02-23T05:21:13.260Z,15.10
2019-02-23T05:23:14.108Z,14.57
2019-02-23T05:25:15.313Z,15.03
2019-02-23T05:27:16.161Z,14.17
2019-02-23T05:29:17.005Z,14.30
2019-02-23T05:31:17.855Z,15.07
2019-02-23T05:33:18.674Z,15.10
2019-02-23T05:35:19.532Z,14.97
2019-02-23T05:37:20.359Z,14.83
2019-02-23T05:39:21.205Z,15.43
2019-02-23T05:41:22.055Z,15.93
2019-02-23T05:43:22.922Z,15.23
2019-02-23T05:45:23.768Z,16.10
2019-02-23T05:47:24.597Z,15.43
2019-02-23T05:49:25.429Z,16.10
2019-02-23T05:51:38.109Z,15.93
2019-02-23T05:53:29.268Z,15.13
2019-02-23T05:55:30.096Z,16.27
2019-02-23T05:57:30.951Z,15.53
2019-02-23T05:59:31.781Z,16.70
2019-02-23T06:01:32.639Z,16.63
2019-02-23T06:03:33.803Z,15.93
2019-02-23T06:05:34.640Z,15.97
2019-02-23T06:07:35.486Z,16.23
2019-02-23T06:09:36.323Z,16.67
2019-02-23T06:11:37.160Z,16.77
2019-02-23T06:13:37.997Z,16.87
2019-02-23T06:15:38.824Z,16.37
2019-02-23T06:17:39.672Z,15.87
2019-02-23T06:19:40.520Z,16.07
2019-02-23T06:21:52.620Z,16.40
2019-02-23T06:23:44.120Z,16.30
2019-02-23T06:25:44.957Z,15.73
2019-02-23T06:27:45.785Z,16.27
2019-02-23T06:29:46.902Z,15.50
2019-02-23T06:31:47.739Z,15.80
2019-02-23T06:33:48.586Z,16.33
2019-02-23T06:35:49.428Z,16.07
2019-02-23T06:37:50.280Z,16.40
2019-02-23T06:39:51.108Z,16.10
2019-02-23T06:41:51.940Z,16.10
2019-02-23T06:43:52.785Z,16.17
2019-02-23T06:45:53.648Z,16.77
2019-02-23T06:47:54.477Z,15.70
2019-02-23T06:49:55.330Z,16.93
2019-02-23T06:52:04.047Z,16.80
2019-02-23T06:53:59.236Z,15.97
2019-02-23T06:56:00.081Z,16.33
2019-02-23T06:58:00.903Z,16.47
2019-02-23T07:00:01.773Z,16.50
2019-02-23T07:02:02.612Z,16.93
2019-02-23T07:04:03.436Z,15.33
2019-02-23T07:06:04.301Z,16.57
2019-02-23T07:08:05.489Z,16.57
2019-02-23T07:10:06.352Z,15.57
2019-02-23T07:12:07.208Z,17.20
2019-02-23T07:14:08.053Z,15.23
2019-02-23T07:16:08.881Z,15.77
2019-02-23T07:18:10.081Z,16.03
2019-02-23T07:20:10.923Z,16.27
2019-02-23T07:22:15.664Z,15.93
2019-02-23T07:24:14.525Z,16.10
2019-02-23T07:26:15.353Z,16.47
2019-02-23T07:28:16.201Z,15.93
2019-02-23T07:30:17.032Z,16.00
2019-02-23T07:32:17.861Z,16.17
2019-02-23T07:34:18.700Z,16.03
2019-02-23T07:36:19.911Z,17.07
2019-02-23T07:38:20.760Z,15.73
2019-02-23T07:40:21.610Z,15.90
2019-02-23T07:42:22.713Z,16.30
2019-02-23T07:44:23.568Z,15.97
2019-02-23T07:46:24.684Z,16.47
2019-02-23T07:48:25.537Z,16.13
2019-02-23T07:50:26.364Z,16.03
2019-02-23T07:52:27.217Z,15.00
2019-02-23T07:54:28.048Z,15.63
2019-02-23T07:56:28.902Z,15.73
2019-02-23T07:58:29.731Z,14.63
2019-02-23T08:00:31.301Z,15.60
2019-02-23T08:02:32.134Z,14.87
2019-02-23T08:04:33.308Z,15.87
2019-02-23T08:06:34.162Z,16.10
2019-02-23T08:08:35.309Z,15.97
2019-02-23T08:10:36.162Z,14.27
2019-02-23T08:12:37.255Z,14.70
2019-02-23T08:14:38.093Z,13.73
2019-02-23T08:16:38.936Z,14.40
2019-02-23T08:18:39.780Z,13.30
2019-02-23T08:20:40.624Z,13.53
2019-02-23T08:22:41.452Z,13.53
2019-02-23T08:24:42.293Z,14.10
2019-02-23T08:26:43.156Z,13.53
2019-02-23T08:28:43.984Z,12.47
2019-02-23T08:30:45.237Z,12.43
2019-02-23T08:32:46.121Z,12.70
2019-02-23T08:34:46.952Z,13.33
2019-02-23T08:36:48.036Z,12.57
2019-02-23T08:38:48.961Z,12.27
2019-02-23T08:40:49.841Z,12.80
2019-02-23T08:42:50.696Z,12.20
2019-02-23T08:44:51.521Z,11.83
2019-02-23T08:46:52.357Z,11.50
2019-02-23T08:48:53.213Z,11.23
2019-02-23T08:50:54.049Z,11.17
2019-02-23T08:52:54.922Z,11.77
2019-02-23T08:54:55.752Z,11.33
2019-02-23T08:56:56.592Z,11.60
2019-02-23T08:58:57.446Z,11.10
2019-02-23T09:00:58.287Z,11.63
2019-02-23T09:02:59.162Z,11.00
2019-02-23T09:05:00.009Z,11.27
2019-02-23T09:07:00.884Z,11.00
2019-02-23T09:09:01.747Z,10.90
2019-02-23T09:11:02.673Z,11.10
2019-02-23T09:13:03.501Z,10.37
2019-02-23T09:15:04.378Z,9.83
2019-02-23T09:17:05.572Z,10.47
2019-02-23T09:19:06.651Z,9.70
2019-02-23T09:21:07.497Z,10.83
2019-02-23T09:23:08.348Z,9.67
2019-02-23T09:25:09.188Z,10.03
2019-02-23T09:27:10.352Z,9.73
2019-02-23T09:29:11.268Z,8.90
2019-02-23T09:31:12.412Z,9.33
2019-02-23T09:33:13.267Z,9.20
2019-02-23T09:35:14.121Z,9.37
2019-02-23T09:37:14.965Z,9.00
2019-02-23T09:39:15.820Z,8.97
2019-02-23T09:41:16.696Z,9.77
2019-02-23T09:43:17.934Z,9.20
2019-02-23T09:45:18.863Z,9.40
2019-02-23T09:47:19.701Z,8.30
2019-02-23T09:49:20.524Z,8.37
2019-02-23T09:51:21.395Z,9.07
2019-02-23T09:53:22.212Z,9.27
2019-02-23T09:55:23.038Z,8.53
2019-02-23T09:57:23.895Z,8.53
2019-02-23T09:59:24.728Z,7.97
2019-02-23T10:01:25.579Z,8.43
2019-02-23T10:03:26.400Z,8.20
2019-02-23T10:05:27.268Z,8.37
2019-02-23T10:07:28.141Z,8.17
2019-02-23T10:09:28.992Z,8.00
2019-02-23T10:11:29.844Z,8.13
2019-02-23T10:13:30.685Z,7.47
2019-02-23T10:15:31.512Z,7.40
2019-02-23T10:17:32.713Z,7.30
2019-02-23T10:19:33.575Z,6.87
2019-02-23T10:21:34.419Z,7.30
2019-02-23T10:23:35.264Z,7.43
2019-02-23T10:25:36.108Z,6.73
2019-02-23T10:27:36.956Z,7.17
2019-02-23T10:29:37.811Z,8.20
2019-02-23T10:31:38.640Z,7.90
2019-02-23T10:33:47.305Z,8.20
2019-02-23T10:35:42.352Z,7.80
2019-02-23T10:37:43.185Z,7.17
2019-02-23T10:39:44.044Z,6.60
2019-02-23T10:41:44.881Z,6.67
2019-02-23T10:43:46.019Z,6.33
2019-02-23T10:45:46.872Z,6.37
2019-02-23T10:47:50.166Z,6.10
2019-02-23T10:49:50.468Z,6.20
2019-02-23T10:51:51.400Z,6.17
2019-02-23T10:53:52.221Z,5.80
2019-02-23T10:55:53.067Z,5.97
2019-02-23T10:57:53.906Z,5.80
2019-02-23T10:59:54.752Z,5.63
2019-02-23T11:01:55.585Z,5.87
2019-02-23T11:03:56.796Z,5.50
2019-02-23T11:05:57.731Z,5.60
2019-02-23T11:08:00.497Z,5.80
2019-02-23T11:10:01.392Z,5.50
2019-02-23T11:12:02.248Z,5.47
2019-02-23T11:14:04.433Z,5.40
2019-02-23T11:16:05.292Z,5.47
2019-02-23T11:18:06.253Z,5.37
2019-02-23T11:20:07.088Z,4.60
2019-02-23T11:22:08.400Z,4.80
2019-02-23T11:24:09.507Z,5.67
2019-02-23T11:26:10.348Z,4.70
2019-02-23T11:28:11.216Z,4.23
2019-02-23T11:30:12.349Z,4.23
2019-02-23T11:32:13.282Z,4.20
2019-02-23T11:34:14.142Z,4.47
2019-02-23T11:36:15.003Z,3.87
2019-02-23T11:38:16.156Z,3.97
2019-02-23T11:40:16.996Z,3.90
2019-02-23T11:42:17.852Z,3.67
2019-02-23T11:44:18.700Z,3.70
2019-02-23T11:46:19.531Z,3.73
2019-02-23T11:48:20.385Z,3.83
2019-02-23T11:50:21.296Z,4.03
2019-02-23T11:52:22.126Z,4.00
2019-02-23T11:54:22.993Z,3.90
2019-02-23T11:56:23.820Z,3.87
2019-02-23T11:58:24.660Z,4.33
2019-02-23T12:00:25.615Z,4.30
2019-02-23T12:02:26.460Z,4.00
2019-02-23T12:04:27.293Z,4.10
2019-02-23T12:06:28.181Z,3.87
2019-02-23T12:08:29.022Z,4.10
2019-02-23T12:10:29.875Z,4.17
2019-02-23T12:12:30.695Z,4.30
2019-02-23T12:14:31.537Z,4.20
2019-02-23T12:16:32.390Z,4.20
2019-02-23T12:18:33.546Z,3.93
2019-02-23T12:20:34.437Z,4.20
2019-02-23T12:22:35.294Z,3.93
2019-02-23T12:24:36.112Z,4.10
2019-02-23T12:26:37.304Z,3.90
2019-02-23T12:28:38.138Z,4.00
2019-02-23T12:30:38.968Z,4.30
2019-02-23T12:32:39.824Z,4.43
2019-02-23T12:34:40.652Z,3.50
2019-02-23T12:36:41.519Z,3.50
2019-02-23T12:38:42.368Z,3.60
2019-02-23T12:40:43.221Z,3.80
2019-02-23T12:42:44.089Z,3.47
2019-02-23T12:44:44.917Z,3.80
2019-02-23T12:46:45.750Z,3.77
2019-02-23T12:48:46.708Z,4.00
2019-02-23T12:50:47.536Z,3.83
2019-02-23T12:52:48.368Z,4.07
2019-02-23T12:54:49.609Z,3.80
2019-02-23T12:56:50.444Z,3.77
2019-02-23T12:58:51.292Z,3.77
2019-02-23T13:00:52.137Z,3.77
2019-02-23T13:02:52.992Z,3.63
2019-02-23T13:04:54.133Z,3.47
2019-02-23T13:06:54.988Z,3.20
2019-02-23T13:08:55.846Z,3.10
2019-02-23T13:10:56.722Z,3.00
2019-02-23T13:12:57.556Z,3.13
2019-02-23T13:14:58.401Z,3.20
2019-02-23T13:16:59.253Z,3.00
2019-02-23T13:19:00.101Z,3.20
2019-02-23T13:21:00.942Z,3.20
2019-02-23T13:23:01.794Z,3.43
2019-02-23T13:25:02.637Z,3.33
2019-02-23T13:27:03.477Z,3.03
2019-02-23T13:29:04.329Z,3.30
2019-02-23T13:31:05.165Z,3.50
2019-02-23T13:33:06.025Z,3.80
2019-02-23T13:35:06.848Z,3.90
2019-02-23T13:37:07.699Z,3.70
2019-02-23T13:39:08.542Z,3.47
2019-02-23T13:41:09.371Z,3.57
2019-02-23T13:43:10.220Z,3.90
2019-02-23T13:45:11.066Z,3.60
2019-02-23T13:47:12.265Z,4.00
2019-02-23T13:49:13.124Z,3.87
2019-02-23T13:51:14.240Z,3.47
2019-02-23T13:53:15.091Z,3.40
2019-02-23T13:55:17.702Z,3.30
2019-02-23T13:57:18.992Z,3.23
2019-02-23T13:59:19.852Z,3.40
2019-02-23T14:01:20.948Z,3.50
2019-02-23T14:03:21.825Z,3.33
2019-02-23T14:05:22.928Z,3.10
2019-02-23T14:07:23.765Z,3.23
2019-02-23T14:09:24.608Z,3.43
2019-02-23T14:11:27.217Z,3.37
2019-02-23T14:13:28.220Z,3.70
2019-02-23T14:15:29.056Z,3.20
2019-02-23T14:17:29.937Z,3.67
2019-02-23T14:19:31.113Z,3.13
2019-02-23T14:21:32.257Z,3.17
2019-02-23T14:23:33.094Z,3.23
2019-02-23T14:25:33.951Z,2.97
2019-02-23T14:27:34.801Z,3.10
2019-02-23T14:29:35.639Z,3.30
2019-02-23T14:31:36.495Z,3.00
2019-02-23T14:33:37.372Z,3.47
2019-02-23T14:35:38.506Z,3.13
2019-02-23T14:37:39.437Z,2.97
2019-02-23T14:39:40.335Z,3.10
2019-02-23T14:41:41.246Z,3.20
2019-02-23T14:43:42.070Z,2.97
2019-02-23T14:45:43.008Z,3.30
2019-02-23T14:47:43.908Z,3.03
2019-02-23T14:49:44.787Z,3.00
2019-02-23T14:51:45.690Z,2.90
2019-02-23T14:53:46.506Z,3.10
2019-02-23T14:55:47.381Z,2.70
2019-02-23T14:57:48.227Z,2.93
2019-02-23T14:59:49.072Z,2.97
2019-02-23T15:01:49.893Z,3.07
2019-02-23T15:03:50.752Z,2.90
2019-02-23T15:05:51.900Z,3.30
2019-02-23T15:07:52.735Z,3.40
2019-02-23T15:09:53.606Z,3.37
2019-02-23T15:11:54.437Z,3.40
2019-02-23T15:13:55.260Z,3.20
2019-02-23T15:15:56.168Z,3.27
2019-02-23T15:17:57.305Z,2.90
2019-02-23T15:19:58.145Z,3.03
2019-02-23T15:21:59.312Z,2.80
2019-02-23T15:24:00.158Z,3.00
2019-02-23T15:26:01.009Z,3.10
2019-02-23T15:28:01.856Z,2.80
2019-02-23T15:30:02.716Z,2.90
2019-02-23T15:32:03.569Z,2.87
2019-02-23T15:34:04.420Z,2.90
2019-02-23T15:36:05.236Z,2.80
2019-02-23T15:38:06.092Z,2.77
2019-02-23T15:40:07.247Z,2.60
2019-02-23T15:42:08.128Z,2.80
2019-02-23T15:44:08.984Z,2.93
2019-02-23T15:46:09.829Z,3.00
2019-02-23T15:48:10.671Z,3.30
2019-02-23T15:50:13.268Z,3.10
2019-02-23T15:52:14.273Z,3.03
2019-02-23T15:54:15.108Z,3.43
2019-02-23T15:56:15.957Z,3.60
2019-02-23T15:58:16.791Z,3.83
2019-02-23T16:00:18.056Z,4.00
2019-02-23T16:02:18.896Z,4.17
2019-02-23T16:04:19.746Z,4.20
2019-02-23T16:06:20.907Z,4.17
2019-02-23T16:08:21.756Z,3.93
2019-02-23T16:10:22.617Z,4.13
2019-02-23T16:12:23.756Z,3.97
2019-02-23T16:14:24.629Z,4.10
2019-02-23T16:16:25.457Z,4.20
2019-02-23T16:18:26.309Z,4.50
2019-02-23T16:20:27.392Z,4.30
2019-02-23T16:22:28.248Z,4.00
2019-02-23T16:24:29.088Z,4.30
2019-02-23T16:26:30.025Z,4.03
2019-02-23T16:28:31.341Z,4.30
2019-02-23T16:30:32.153Z,3.93
2019-02-23T16:32:33.305Z,4.30
2019-02-23T16:34:34.212Z,4.17
2019-02-23T16:36:35.077Z,4.30
2019-02-23T16:38:35.905Z,4.40
2019-02-23T16:40:36.749Z,4.20
2019-02-23T16:42:37.597Z,4.20
2019-02-23T16:44:38.457Z,4.00
2019-02-23T16:46:39.281Z,4.37
2019-02-23T16:48:40.161Z,4.00
2019-02-23T16:50:41.004Z,4.00
2019-02-23T16:52:41.828Z,3.80
2019-02-23T16:54:42.686Z,3.63
2019-02-23T16:56:43.517Z,3.87
2019-02-23T16:58:44.376Z,4.10
2019-02-23T17:00:45.533Z,4.30
2019-02-23T17:02:46.377Z,4.27
2019-02-23T17:04:53.498Z,4.30
2019-02-23T17:06:50.283Z,3.80
2019-02-23T17:08:51.452Z,3.90
2019-02-23T17:10:52.369Z,3.60
2019-02-23T17:12:53.232Z,4.60
2019-02-23T17:14:54.068Z,3.80
2019-02-23T17:16:54.946Z,4.00
2019-02-23T17:18:55.789Z,5.70
2019-02-23T17:20:56.612Z,10.27
2019-02-23T17:22:57.513Z,10.73
2019-02-23T17:24:58.348Z,14.63
2019-02-23T17:26:59.208Z,6.00
2019-02-23T17:29:00.050Z,4.20
2019-02-23T17:31:01.041Z,4.57
2019-02-23T17:33:01.938Z,5.90
2019-02-23T17:35:02.764Z,3.87
2019-02-23T17:37:03.616Z,6.57
2019-02-23T17:39:04.448Z,7.47
2019-02-23T17:41:05.298Z,5.57
2019-02-23T17:43:06.137Z,5.60
2019-02-23T17:45:06.968Z,5.33
2019-02-23T17:47:08.129Z,4.93
2019-02-23T17:49:09.216Z,4.53
2019-02-23T17:51:10.050Z,5.00
2019-02-23T17:53:10.896Z,4.07
2019-02-23T17:55:11.728Z,4.37
2019-02-23T17:57:12.598Z,8.50
2019-02-23T17:59:13.437Z,4.60
2019-02-23T18:01:14.265Z,4.10
2019-02-23T18:03:15.125Z,4.37
2019-02-23T18:05:15.964Z,4.53
2019-02-23T18:07:16.799Z,7.07
2019-02-23T18:09:17.637Z,4.67
2019-02-23T18:11:18.489Z,4.20
2019-02-23T18:13:19.313Z,3.80
2019-02-23T18:15:20.177Z,4.30
2019-02-23T18:17:21.023Z,6.70
2019-02-23T18:19:22.137Z,5.00
2019-02-23T18:21:22.977Z,5.10
2019-02-23T18:23:23.819Z,5.70
2019-02-23T18:25:24.667Z,4.37
2019-02-23T18:27:25.526Z,5.30
2019-02-23T18:29:26.395Z,5.37
2019-02-23T18:31:27.244Z,5.10
2019-02-23T18:33:28.089Z,8.37
2019-02-23T18:35:28.937Z,7.43
2019-02-23T18:37:29.799Z,6.40
2019-02-23T18:39:30.645Z,5.33
2019-02-23T18:41:31.476Z,5.30
2019-02-23T18:43:33.076Z,5.40
2019-02-23T18:45:33.913Z,4.67
2019-02-23T18:47:34.745Z,4.93
2019-02-23T18:49:35.868Z,4.80
2019-02-23T18:51:36.719Z,4.60
2019-02-23T18:53:37.838Z,4.50
2019-02-23T18:55:41.003Z,4.33
2019-02-23T18:57:41.426Z,4.50
2019-02-23T18:59:42.266Z,4.50
2019-02-23T19:01:43.100Z,4.70
2019-02-23T19:03:43.957Z,5.00
2019-02-23T19:05:49.927Z,4.90
2019-02-23T19:07:47.824Z,5.03
2019-02-23T19:09:48.672Z,5.10
2019-02-23T19:11:49.828Z,5.57
2019-02-23T19:13:50.714Z,4.73
2019-02-23T19:15:51.904Z,5.77
2019-02-23T19:17:52.741Z,6.50
2019-02-23T19:19:53.590Z,7.10
2019-02-23T19:21:54.416Z,6.30
2019-02-23T19:23:55.256Z,6.00
2019-02-23T19:25:56.112Z,5.40
2019-02-23T19:27:56.945Z,4.70
2019-02-23T19:29:57.808Z,4.60
2019-02-23T19:31:58.647Z,4.63
2019-02-23T19:33:59.503Z,4.93
2019-02-23T19:36:00.660Z,4.80
2019-02-23T19:38:01.784Z,4.60
2019-02-23T19:40:02.744Z,4.57
2019-02-23T19:42:03.708Z,4.30
2019-02-23T19:44:04.623Z,4.50
2019-02-23T19:46:05.548Z,4.50
2019-02-23T19:48:06.401Z,4.50
2019-02-23T19:50:07.232Z,4.30
2019-02-23T19:52:08.336Z,4.70
2019-02-23T19:54:09.200Z,4.63
2019-02-23T19:56:10.033Z,4.53
2019-02-23T19:58:10.900Z,5.23
2019-02-23T20:00:11.720Z,4.97
2019-02-23T20:02:12.580Z,5.20
2019-02-23T20:04:13.448Z,5.00
2019-02-23T20:06:14.283Z,4.37
2019-02-23T20:08:15.154Z,4.67
2019-02-23T20:10:15.971Z,4.27
2019-02-23T20:12:16.929Z,4.53
2019-02-23T20:14:17.765Z,4.53
2019-02-23T20:16:18.604Z,4.27
2019-02-23T20:18:19.488Z,4.90
2019-02-23T20:20:20.321Z,4.50
2019-02-23T20:22:21.184Z,4.27
2019-02-23T20:24:22.054Z,4.30
2019-02-23T20:26:23.165Z,3.93
2019-02-23T20:28:24.053Z,4.07
2019-02-23T20:30:24.889Z,3.87
2019-02-23T20:32:25.728Z,3.73
2019-02-23T20:34:26.578Z,3.87
2019-02-23T20:36:27.420Z,4.00
2019-02-23T20:38:28.285Z,4.37
2019-02-23T20:40:29.450Z,3.90
2019-02-23T20:42:30.306Z,4.00
2019-02-23T20:44:31.141Z,3.80
2019-02-23T20:46:32.366Z,4.00
2019-02-23T20:48:33.331Z,4.00
2019-02-23T20:50:34.281Z,3.60
2019-02-23T20:52:35.372Z,3.87
2019-02-23T20:54:36.232Z,3.77
2019-02-23T20:56:37.096Z,3.93
2019-02-23T20:58:38.033Z,3.83
2019-02-23T21:00:38.873Z,3.70
2019-02-23T21:02:39.750Z,3.80
2019-02-23T21:04:40.592Z,4.17
2019-02-23T21:06:41.459Z,4.17
2019-02-23T21:08:42.297Z,3.80
2019-02-23T21:10:43.264Z,4.60
2019-02-23T21:12:44.097Z,5.00
2019-02-23T21:14:44.952Z,4.50
2019-02-23T21:16:45.813Z,4.87
2019-02-23T21:18:46.652Z,4.70
2019-02-23T21:20:47.539Z,4.70
2019-02-23T21:22:48.400Z,4.40
2019-02-23T21:24:49.228Z,4.37
2019-02-23T21:26:50.084Z,4.03
2019-02-23T21:28:50.926Z,4.70
2019-02-23T21:30:51.777Z,4.57
2019-02-23T21:32:52.650Z,3.83
2019-02-23T21:34:53.801Z,3.57
2019-02-23T21:36:54.702Z,3.50
2019-02-23T21:38:55.872Z,3.60
2019-02-23T21:40:57.772Z,3.90
2019-02-23T21:42:59.057Z,3.87
2019-02-23T21:44:59.908Z,3.77
2019-02-23T21:47:00.746Z,3.47
2019-02-23T21:49:01.583Z,3.60
2019-02-23T21:51:02.407Z,3.60
2019-02-23T21:53:03.540Z,3.50
2019-02-23T21:55:04.395Z,3.40
2019-02-23T21:57:05.366Z,3.47
2019-02-23T21:59:06.223Z,3.53
2019-02-23T22:01:07.067Z,3.20
2019-02-23T22:03:07.994Z,3.70
2019-02-23T22:05:12.438Z,3.70
2019-02-23T22:07:11.594Z,3.60
2019-02-23T22:09:12.424Z,3.60
2019-02-23T22:11:13.293Z,3.30
2019-02-23T22:13:14.134Z,3.00
2019-02-23T22:15:14.958Z,3.57
2019-02-23T22:17:15.812Z,3.10
2019-02-23T22:19:16.632Z,3.30
2019-02-23T22:21:17.865Z,3.97
2019-02-23T22:23:18.729Z,3.37
2019-02-23T22:25:19.545Z,3.63
2019-02-23T22:27:20.404Z,3.77
2019-02-23T22:29:21.241Z,3.40
2019-02-23T22:31:22.076Z,3.47
2019-02-23T22:33:22.908Z,3.53
2019-02-23T22:35:23.765Z,3.47
2019-02-23T22:37:24.608Z,3.20
2019-02-23T22:39:25.449Z,3.40
2019-02-23T22:41:26.720Z,3.50
2019-02-23T22:43:28.056Z,3.70
2019-02-23T22:45:28.940Z,3.60
2019-02-23T22:47:29.779Z,3.57
2019-02-23T22:49:30.596Z,4.40
2019-02-23T22:51:31.454Z,3.50
2019-02-23T22:53:32.310Z,4.03
2019-02-23T22:55:33.148Z,3.90
2019-02-23T22:57:40.249Z,3.80
2019-02-23T22:59:36.731Z,3.67
2019-02-23T23:07:20.489Z,3.33
2019-02-23T23:09:45.282Z,3.53
2019-02-23T23:12:44.456Z,3.50
2019-02-23T23:15:38.271Z,3.40
2019-02-23T23:16:51.677Z,3.40
2019-02-23T23:21:45.889Z,3.50
2019-02-23T23:23:34.956Z,3.30
2019-02-23T23:25:35.845Z,3.10
2019-02-23T23:27:36.700Z,3.10
2019-02-23T23:29:37.533Z,2.97
2019-02-23T23:31:38.473Z,3.50
2019-02-23T23:33:39.336Z,3.47
2019-02-23T23:35:40.169Z,3.40
2019-02-23T23:37:41.009Z,3.43
2019-02-23T23:39:41.913Z,2.93
2019-02-23T23:41:42.808Z,3.30
2019-02-23T23:43:43.760Z,3.10
2019-02-23T23:45:44.708Z,3.10
2019-02-23T23:47:45.626Z,3.10
2019-02-23T23:49:46.581Z,2.80
2019-02-23T23:51:47.444Z,2.80
2019-02-23T23:53:48.330Z,3.20
2019-02-23T23:55:49.189Z,3.10
2019-02-23T23:57:58.104Z,3.03
2019-02-23T23:59:53.245Z,2.80
